CSA4 weather

Boisvert & Fils Seaplane Base
Montréal, Quebec, Canada

Public forecast

Using degrees Celsius for public forecast. Weather courtesy of forecast.io.

METAR (pilot weather report)

Closest report is Montréal / Saint-Hubert Airport, 10.8 nm (20.0 km) SE. Retrieved 2019/07/18 10:00 UTC (9 minutes ago):

CYHU 181000Z AUTO 01010KT 9SM CLR 14/11 A3002 RMK SLP167

TAF (pilot weather forecast)

Closest forecast is Montréal / Saint-Hubert Airport, 10.8 nm (20.0 km) SE. Retrieved 2019/07/18 06:57 UTC (3 hours ago):

TAF TAF CYHU 180551Z 1806/1906 04006KT P6SM FEW280 BECMG 1815/1817 07010KT FM190000 07006KT P6SM BKN280 RMK FCST BASED ON AUTO OBS. NXT FCST BY 181200Z